Time,TemperatureF,DewpointF,PressureIn,WindDirection,WindDirectionDegrees,WindSpeedMPH,WindSpeedGustMPH,Humidity,HourlyPrecipIn,Conditions,Clouds,dailyrainin,SoftwareType,DateUTC
2013-07-09 00:01:00,70.9,69.4,-100.00,SE,137,0.0,0.0,95,0.00,,,0.01,meteohub,2013-07-09 04:01:00,
2013-07-09 00:02:00,70.9,69.4,-100.00,SE,137,0.0,0.0,95,0.00,,,0.01,meteohub,2013-07-09 04:02:00,
2013-07-09 00:03:00,70.9,69.4,-100.00,SE,137,0.0,0.0,95,0.00,,,0.01,meteohub,2013-07-09 04:03:00,
2013-07-09 00:08:00,71.1,69.6,-100.00,SE,136,0.0,0.0,95,0.00,,,0.00,meteohub,2013-07-09 04:08:00,
2013-07-09 00:13:00,71.1,69.6,-100.00,SE,136,0.0,0.0,95,0.00,,,0.00,meteohub,2013-07-09 04:13:00,
2013-07-09 00:18:00,70.9,69.4,-100.00,SE,136,0.0,1.0,95,0.00,,,0.00,meteohub,2013-07-09 04:18:00,
2013-07-09 00:23:00,70.9,69.4,-100.00,SE,136,0.0,1.0,95,0.00,,,0.00,meteohub,2013-07-09 04:23:00,
2013-07-09 00:28:00,70.9,69.4,-100.00,SE,136,0.0,1.0,95,0.00,,,0.00,meteohub,2013-07-09 04:28:00,
2013-07-09 00:33:00,70.9,69.4,-100.00,SE,135,0.0,1.0,95,0.00,,,0.00,meteohub,2013-07-09 04:33:00,
2013-07-09 00:38:00,70.7,69.3,-100.00,NNE,14,0.0,1.0,95,0.00,,,0.00,meteohub,2013-07-09 04:38:00,
2013-07-09 00:43:00,70.7,69.3,-100.00,NNE,14,0.0,1.0,95,0.00,,,0.00,meteohub,2013-07-09 04:43:00,
2013-07-09 00:48:00,70.5,69.1,-100.00,NNE,14,0.0,1.0,95,0.00,,,0.00,meteohub,2013-07-09 04:48:00,
2013-07-09 00:53:00,70.5,69.1,-100.00,NNE,14,0.0,1.0,95,0.00,,,0.00,meteohub,2013-07-09 04:53:00,
2013-07-09 00:58:00,70.5,69.3,-100.00,NNE,14,0.0,1.0,96,0.00,,,0.00,meteohub,2013-07-09 04:58:00,
2013-07-09 01:03:00,70.5,69.3,-100.00,NNE,14,0.0,1.0,96,0.00,,,0.00,meteohub,2013-07-09 05:03:00,
2013-07-09 01:08:00,70.3,69.1,-100.00,NNE,14,0.0,1.0,96,0.00,,,0.00,meteohub,2013-07-09 05:08:00,
2013-07-09 01:13:00,70.3,69.1,-100.00,NNE,14,0.0,0.0,96,0.00,,,0.00,meteohub,2013-07-09 05:13:00,
2013-07-09 01:18:00,70.3,69.1,-100.00,NNE,14,0.0,0.0,96,0.00,,,0.00,meteohub,2013-07-09 05:18:00,
2013-07-09 01:23:00,70.5,69.3,-100.00,NNE,14,0.0,0.0,96,0.00,,,0.00,meteohub,2013-07-09 05:23:00,
2013-07-09 01:28:00,70.5,69.3,-100.00,NNE,14,0.0,0.0,96,0.01,,,0.01,meteohub,2013-07-09 05:28:00,
2013-07-09 01:33:00,70.5,69.3,-100.00,NNE,14,0.0,0.0,96,0.01,,,0.01,meteohub,2013-07-09 05:33:00,
2013-07-09 01:38:00,70.5,69.3,-100.00,NNE,14,0.0,0.0,96,0.01,,,0.01,meteohub,2013-07-09 05:38:00,
2013-07-09 01:43:00,70.7,69.4,-100.00,ESE,115,0.0,0.0,96,0.02,,,0.02,meteohub,2013-07-09 05:43:00,
2013-07-09 01:48:00,70.9,69.6,-100.00,South,172,0.0,1.0,96,0.02,,,0.02,meteohub,2013-07-09 05:48:00,
2013-07-09 01:53:00,71.1,69.8,-100.00,SSE,164,0.0,1.0,96,0.03,,,0.03,meteohub,2013-07-09 05:53:00,
2013-07-09 01:58:00,71.1,69.8,-100.00,SE,145,2.0,2.0,96,0.03,,,0.03,meteohub,2013-07-09 05:58:00,
2013-07-09 02:03:00,71.1,69.8,-100.00,SSE,148,0.0,2.0,96,0.03,,,0.03,meteohub,2013-07-09 06:03:00,
2013-07-09 02:08:00,71.1,69.8,-100.00,SE,134,1.0,2.0,96,0.03,,,0.03,meteohub,2013-07-09 06:08:00,
2013-07-09 02:13:00,71.2,70.0,-100.00,South,189,1.0,2.0,96,0.03,,,0.03,meteohub,2013-07-09 06:13:00,
2013-07-09 02:18:00,71.2,70.0,-100.00,SE,146,0.0,2.0,96,0.03,,,0.03,meteohub,2013-07-09 06:18:00,
2013-07-09 02:24:00,71.2,70.0,-100.00,South,172,0.0,3.0,96,0.03,,,0.03,meteohub,2013-07-09 06:24:00,
2013-07-09 02:29:00,71.2,70.0,-100.00,SSE,148,0.0,3.0,96,0.02,,,0.03,meteohub,2013-07-09 06:29:00,
2013-07-09 02:34:00,71.2,70.0,-100.00,SE,139,0.0,2.0,96,0.02,,,0.03,meteohub,2013-07-09 06:34:00,
2013-07-09 02:39:00,71.4,70.2,-100.00,SSE,147,0.0,1.0,96,0.02,,,0.03,meteohub,2013-07-09 06:39:00,
2013-07-09 02:44:00,71.4,70.2,-100.00,SE,143,1.0,1.0,96,0.01,,,0.03,meteohub,2013-07-09 06:44:00,
2013-07-09 02:49:00,71.4,70.2,-100.00,SE,136,0.0,2.0,96,0.01,,,0.03,meteohub,2013-07-09 06:49:00,
2013-07-09 02:54:00,71.4,70.2,-100.00,SE,133,0.0,2.0,96,0.00,,,0.03,meteohub,2013-07-09 06:54:00,
2013-07-09 02:59:00,71.4,70.2,-100.00,SE,144,0.0,1.0,96,0.00,,,0.03,meteohub,2013-07-09 06:59:00,
2013-07-09 03:04:00,71.4,70.2,-100.00,SE,140,0.0,1.0,96,0.00,,,0.03,meteohub,2013-07-09 07:04:00,
2013-07-09 03:09:00,71.4,70.2,-100.00,SE,134,1.0,1.0,96,0.00,,,0.03,meteohub,2013-07-09 07:09:00,
2013-07-09 03:14:00,71.4,70.2,-100.00,South,179,0.0,1.0,96,0.00,,,0.03,meteohub,2013-07-09 07:14:00,
2013-07-09 03:19:00,71.4,70.2,-100.00,South,170,0.0,1.0,96,0.00,,,0.03,meteohub,2013-07-09 07:19:00,
2013-07-09 03:24:00,71.6,70.3,-100.00,SSE,150,0.0,2.0,96,0.00,,,0.03,meteohub,2013-07-09 07:24:00,
2013-07-09 03:29:00,71.6,70.3,-100.00,SSW,210,0.0,2.0,96,0.00,,,0.03,meteohub,2013-07-09 07:29:00,
2013-07-09 03:34:00,71.6,70.3,-100.00,SSE,163,0.0,2.0,96,0.00,,,0.03,meteohub,2013-07-09 07:34:00,
2013-07-09 03:39:00,71.6,70.3,-100.00,SSW,193,1.0,2.0,96,0.00,,,0.03,meteohub,2013-07-09 07:39:00,
2013-07-09 03:44:00,71.8,70.5,-100.00,South,176,0.0,2.0,96,0.00,,,0.03,meteohub,2013-07-09 07:44:00,
2013-07-09 03:53:00,71.8,70.5,-100.00,SSW,197,0.0,3.0,96,0.00,,,0.03,meteohub,2013-07-09 07:53:00,
2013-07-09 03:58:00,71.8,70.5,-100.00,SSE,155,1.0,4.0,96,0.00,,,0.03,meteohub,2013-07-09 07:58:00,
2013-07-09 04:03:00,71.8,70.5,-100.00,SSW,205,1.0,4.0,96,0.00,,,0.03,meteohub,2013-07-09 08:03:00,
2013-07-09 04:08:00,71.8,70.3,-100.00,SSW,198,2.0,5.0,95,0.00,,,0.03,meteohub,2013-07-09 08:08:00,
2013-07-09 04:13:00,71.6,70.2,-100.00,SSW,209,1.0,5.0,95,0.00,,,0.03,meteohub,2013-07-09 08:13:00,
2013-07-09 04:18:00,71.6,70.2,-100.00,SW,219,1.0,5.0,95,0.00,,,0.03,meteohub,2013-07-09 08:18:00,
2013-07-09 04:23:00,71.4,70.0,-100.00,South,184,2.0,4.0,95,0.00,,,0.03,meteohub,2013-07-09 08:23:00,
2013-07-09 04:28:00,71.4,70.0,-100.00,SSW,198,1.0,4.0,95,0.00,,,0.03,meteohub,2013-07-09 08:28:00,
2013-07-09 04:33:00,71.4,70.0,-100.00,SSE,148,1.0,4.0,95,0.00,,,0.03,meteohub,2013-07-09 08:33:00,
2013-07-09 04:38:00,71.4,70.0,-100.00,SSE,160,0.0,4.0,95,0.00,,,0.03,meteohub,2013-07-09 08:38:00,
2013-07-09 04:43:00,71.4,70.0,-100.00,SSW,195,0.0,4.0,95,0.00,,,0.03,meteohub,2013-07-09 08:43:00,
2013-07-09 04:48:00,71.2,69.8,-100.00,SSW,207,1.0,4.0,95,0.00,,,0.03,meteohub,2013-07-09 08:48:00,
2013-07-09 04:53:00,71.2,69.8,-100.00,SE,137,0.0,3.0,95,0.00,,,0.03,meteohub,2013-07-09 08:53:00,
2013-07-09 04:58:00,71.2,69.8,-100.00,SW,225,0.0,3.0,95,0.00,,,0.03,meteohub,2013-07-09 08:58:00,
2013-07-09 05:03:00,71.1,69.6,-100.00,SW,235,0.0,3.0,95,0.00,,,0.03,meteohub,2013-07-09 09:03:00,
2013-07-09 05:08:00,71.1,69.6,-100.00,SW,233,0.0,3.0,95,0.00,,,0.03,meteohub,2013-07-09 09:08:00,
2013-07-09 05:13:00,71.1,69.6,-100.00,WSW,243,1.0,3.0,95,0.00,,,0.03,meteohub,2013-07-09 09:13:00,
2013-07-09 05:18:00,70.9,69.4,-100.00,WSW,243,0.0,1.0,95,0.00,,,0.03,meteohub,2013-07-09 09:18:00,
2013-07-09 05:23:00,70.9,69.4,-100.00,WSW,242,0.0,1.0,95,0.00,,,0.03,meteohub,2013-07-09 09:23:00,
2013-07-09 05:28:00,70.7,69.3,-100.00,SSW,212,0.0,1.0,95,0.00,,,0.03,meteohub,2013-07-09 09:28:00,
2013-07-09 05:33:00,70.7,69.3,-100.00,SSW,212,0.0,1.0,95,0.00,,,0.03,meteohub,2013-07-09 09:33:00,
2013-07-09 05:38:00,70.5,69.1,-100.00,SSW,212,0.0,0.0,95,0.00,,,0.03,meteohub,2013-07-09 09:38:00,
2013-07-09 05:43:00,70.5,69.1,-100.00,SSW,212,0.0,1.0,95,0.00,,,0.03,meteohub,2013-07-09 09:43:00,
2013-07-09 05:48:00,70.5,69.1,-100.00,SSW,211,0.0,1.0,95,0.00,,,0.03,meteohub,2013-07-09 09:48:00,
2013-07-09 05:53:00,70.3,68.9,-100.00,SSW,200,0.0,1.0,95,0.00,,,0.03,meteohub,2013-07-09 09:53:00,
2013-07-09 05:58:00,70.3,68.9,-100.00,SSE,164,1.0,1.0,95,0.00,,,0.03,meteohub,2013-07-09 09:58:00,
2013-07-09 06:03:00,70.3,68.9,-100.00,South,186,0.0,1.0,95,0.00,,,0.03,meteohub,2013-07-09 10:03:00,
2013-07-09 06:08:00,70.5,69.1,-100.00,SSW,193,0.0,1.0,95,0.00,,,0.03,meteohub,2013-07-09 10:08:00,
2013-07-09 06:13:00,70.5,69.1,-100.00,SSW,193,0.0,1.0,95,0.00,,,0.03,meteohub,2013-07-09 10:13:00,
2013-07-09 06:19:00,70.5,69.1,-100.00,SSW,193,0.0,1.0,95,0.00,,,0.03,meteohub,2013-07-09 10:19:00,
2013-07-09 06:24:00,70.5,69.1,-100.00,SSW,212,1.0,1.0,95,0.00,,,0.03,meteohub,2013-07-09 10:24:00,
2013-07-09 06:29:00,70.7,69.3,-100.00,SSW,203,0.0,1.0,95,0.00,,,0.03,meteohub,2013-07-09 10:29:00,
2013-07-09 06:34:00,70.9,69.4,-100.00,SSW,203,0.0,1.0,95,0.00,,,0.03,meteohub,2013-07-09 10:34:00,
2013-07-09 06:39:00,70.9,69.4,-100.00,SSW,203,0.0,1.0,95,0.00,,,0.03,meteohub,2013-07-09 10:39:00,
2013-07-09 06:44:00,71.1,69.6,-100.00,SSW,203,0.0,1.0,95,0.00,,,0.03,meteohub,2013-07-09 10:44:00,
2013-07-09 06:49:00,71.1,69.6,-100.00,SE,138,0.0,1.0,95,0.00,,,0.03,meteohub,2013-07-09 10:49:00,
2013-07-09 06:54:00,71.1,69.6,-100.00,SE,138,0.0,1.0,95,0.00,,,0.03,meteohub,2013-07-09 10:54:00,
2013-07-09 06:59:00,71.1,69.6,-100.00,SE,138,0.0,1.0,95,0.00,,,0.03,meteohub,2013-07-09 10:59:00,
2013-07-09 07:04:00,71.1,69.6,-100.00,SE,146,0.0,1.0,95,0.00,,,0.03,meteohub,2013-07-09 11:04:00,
2013-07-09 07:09:00,71.1,69.6,-100.00,SE,146,0.0,1.0,95,0.00,,,0.03,meteohub,2013-07-09 11:09:00,
2013-07-09 07:14:00,71.1,69.6,-100.00,South,177,0.0,1.0,95,0.00,,,0.03,meteohub,2013-07-09 11:14:00,
2013-07-09 07:19:00,71.2,69.8,-100.00,South,179,0.0,1.0,95,0.00,,,0.03,meteohub,2013-07-09 11:19:00,
2013-07-09 07:24:00,71.2,69.8,-100.00,South,179,0.0,0.0,95,0.00,,,0.03,meteohub,2013-07-09 11:24:00,
2013-07-09 07:29:00,71.4,70.0,-100.00,South,179,0.0,0.0,95,0.00,,,0.03,meteohub,2013-07-09 11:29:00,
2013-07-09 07:34:00,71.6,70.2,-100.00,WSW,252,0.0,0.0,95,0.00,,,0.03,meteohub,2013-07-09 11:34:00,
2013-07-09 07:39:00,71.8,70.3,-100.00,WSW,252,0.0,0.0,95,0.00,,,0.03,meteohub,2013-07-09 11:39:00,
2013-07-09 07:44:00,72.0,70.5,-100.00,WSW,252,0.0,1.0,95,0.00,,,0.03,meteohub,2013-07-09 11:44:00,
2013-07-09 07:49:00,72.0,70.2,-100.00,WSW,252,0.0,1.0,94,0.00,,,0.03,meteohub,2013-07-09 11:49:00,
2013-07-09 07:54:00,72.1,70.3,-100.00,WSW,252,0.0,1.0,94,0.00,,,0.03,meteohub,2013-07-09 11:54:00,
2013-07-09 07:59:00,72.3,70.5,-100.00,WSW,252,0.0,1.0,94,0.00,,,0.03,meteohub,2013-07-09 11:59:00,
2013-07-09 08:05:00,72.7,70.5,-100.00,WSW,252,0.0,1.0,93,0.00,,,0.03,meteohub,2013-07-09 12:05:00,
2013-07-09 08:10:00,72.9,70.7,-100.00,WSW,238,0.0,1.0,93,0.00,,,0.03,meteohub,2013-07-09 12:10:00,
2013-07-09 08:15:00,73.0,70.9,-100.00,SE,130,0.0,1.0,93,0.00,,,0.03,meteohub,2013-07-09 12:15:00,
2013-07-09 08:20:00,73.2,70.7,-100.00,SE,131,0.0,1.0,92,0.00,,,0.03,meteohub,2013-07-09 12:20:00,
2013-07-09 08:25:00,73.2,70.7,-100.00,SE,131,0.0,0.0,92,0.00,,,0.03,meteohub,2013-07-09 12:25:00,
2013-07-09 08:30:00,73.2,70.5,-100.00,SSE,160,0.0,0.0,91,0.00,,,0.03,meteohub,2013-07-09 12:30:00,
2013-07-09 08:35:00,73.6,71.1,-100.00,SE,129,0.0,0.0,92,0.00,,,0.03,meteohub,2013-07-09 12:35:00,
2013-07-09 08:40:00,73.8,71.2,-100.00,SE,129,0.0,0.0,92,0.00,,,0.03,meteohub,2013-07-09 12:40:00,
2013-07-09 08:45:00,73.8,71.2,-100.00,SE,130,0.0,0.0,92,0.00,,,0.03,meteohub,2013-07-09 12:45:00,
2013-07-09 08:50:00,73.6,70.7,-100.00,SE,129,0.0,0.0,91,0.00,,,0.03,meteohub,2013-07-09 12:50:00,
2013-07-09 08:55:00,73.6,70.7,-100.00,SE,129,0.0,0.0,91,0.00,,,0.03,meteohub,2013-07-09 12:55:00,
2013-07-09 09:00:00,73.8,71.2,-100.00,SE,129,0.0,0.0,92,0.00,,,0.03,meteohub,2013-07-09 13:00:00,
2013-07-09 09:05:00,73.9,71.4,-100.00,SE,129,0.0,0.0,92,0.00,,,0.03,meteohub,2013-07-09 13:05:00,
2013-07-09 09:10:00,74.5,72.0,-100.00,NE,51,0.0,0.0,92,0.00,,,0.03,meteohub,2013-07-09 13:10:00,
2013-07-09 09:16:00,74.7,70.9,-100.00,SSW,201,0.0,3.0,88,0.00,,,0.03,meteohub,2013-07-09 13:16:00,
2013-07-09 09:21:00,75.0,70.9,-100.00,SSE,153,2.0,3.0,87,0.00,,,0.03,meteohub,2013-07-09 13:21:00,
2013-07-09 09:26:00,75.4,71.2,-100.00,SE,128,1.0,5.0,87,0.00,,,0.03,meteohub,2013-07-09 13:26:00,
2013-07-09 09:31:00,75.6,71.1,-100.00,SSE,165,0.0,5.0,86,0.00,,,0.03,meteohub,2013-07-09 13:31:00,
2013-07-09 09:36:00,75.4,70.5,-100.00,South,184,2.0,5.0,85,0.00,,,0.03,meteohub,2013-07-09 13:36:00,
2013-07-09 09:41:00,75.4,70.5,-100.00,ESE,113,2.0,4.0,85,0.00,,,0.03,meteohub,2013-07-09 13:41:00,
2013-07-09 09:46:00,75.2,70.7,-100.00,SSE,153,1.0,4.0,86,0.00,,,0.03,meteohub,2013-07-09 13:46:00,
2013-07-09 09:51:00,75.0,70.2,-100.00,SSW,193,0.0,4.0,85,0.00,,,0.03,meteohub,2013-07-09 13:51:00,
2013-07-09 09:56:00,75.0,70.5,-100.00,SSW,205,1.0,5.0,86,0.00,,,0.03,meteohub,2013-07-09 13:56:00,
2013-07-09 10:01:00,75.0,70.5,-100.00,SE,127,3.0,5.0,86,0.00,,,0.03,meteohub,2013-07-09 14:01:00,
2013-07-09 10:06:00,75.0,70.5,-100.00,SW,236,1.0,5.0,86,0.00,,,0.03,meteohub,2013-07-09 14:06:00,
2013-07-09 10:11:00,75.0,70.5,-100.00,SSW,205,0.0,4.0,86,0.00,,,0.03,meteohub,2013-07-09 14:11:00,
2013-07-09 10:16:00,74.8,70.3,-100.00,SW,217,0.0,4.0,86,0.00,,,0.03,meteohub,2013-07-09 14:16:00,
2013-07-09 10:21:00,74.8,70.7,-100.00,SE,145,2.0,4.0,87,0.00,,,0.03,meteohub,2013-07-09 14:21:00,
2013-07-09 10:26:00,74.5,70.3,-100.00,SSE,152,1.0,4.0,87,0.00,,,0.03,meteohub,2013-07-09 14:26:00,
2013-07-09 10:31:00,74.1,70.3,-100.00,SW,222,3.0,5.0,88,0.00,,,0.03,meteohub,2013-07-09 14:31:00,
2013-07-09 10:37:00,74.1,70.3,-100.00,SW,220,2.0,5.0,88,0.00,,,0.03,meteohub,2013-07-09 14:37:00,
2013-07-09 10:42:00,74.1,70.3,-100.00,SSE,148,3.0,5.0,88,0.00,,,0.03,meteohub,2013-07-09 14:42:00,
2013-07-09 10:47:00,74.1,70.3,-100.00,SE,145,1.0,5.0,88,0.00,,,0.03,meteohub,2013-07-09 14:47:00,
2013-07-09 10:52:00,74.1,70.3,-100.00,SE,143,4.0,5.0,88,0.00,,,0.03,meteohub,2013-07-09 14:52:00,
2013-07-09 10:57:00,74.1,70.3,-100.00,ESE,120,2.0,5.0,88,0.00,,,0.03,meteohub,2013-07-09 14:57:00,
2013-07-09 11:02:00,74.3,70.5,-100.00,ESE,117,1.0,4.0,88,0.00,,,0.03,meteohub,2013-07-09 15:02:00,
2013-07-09 11:07:00,74.5,70.7,-100.00,SE,127,1.0,5.0,88,0.00,,,0.03,meteohub,2013-07-09 15:07:00,
2013-07-09 11:12:00,74.8,70.7,-100.00,SSE,159,2.0,5.0,87,0.00,,,0.03,meteohub,2013-07-09 15:12:00,
2013-07-09 11:17:00,75.4,70.9,-100.00,SSW,197,2.0,4.0,86,0.00,,,0.03,meteohub,2013-07-09 15:17:00,
2013-07-09 11:22:00,75.9,70.7,-100.00,East,91,4.0,6.0,84,0.00,,,0.03,meteohub,2013-07-09 15:22:00,
2013-07-09 11:27:00,76.5,70.9,-100.00,South,184,3.0,7.0,83,0.00,,,0.03,meteohub,2013-07-09 15:27:00,
2013-07-09 11:32:00,76.8,70.9,-100.00,SSE,160,3.0,7.0,82,0.00,,,0.03,meteohub,2013-07-09 15:32:00,
2013-07-09 11:37:00,76.6,71.1,-100.00,SSE,162,4.0,6.0,83,0.00,,,0.03,meteohub,2013-07-09 15:37:00,
2013-07-09 11:42:00,76.5,70.9,-100.00,SE,134,4.0,6.0,83,0.00,,,0.03,meteohub,2013-07-09 15:42:00,
2013-07-09 11:47:00,77.0,71.4,-100.00,SSW,199,5.0,6.0,83,0.00,,,0.03,meteohub,2013-07-09 15:47:00,
2013-07-09 11:52:00,78.3,72.3,-100.00,SE,124,2.0,6.0,82,0.00,,,0.03,meteohub,2013-07-09 15:52:00,
2013-07-09 11:57:00,78.3,71.2,-100.00,SE,138,5.0,9.0,79,0.00,,,0.03,meteohub,2013-07-09 15:57:00,
2013-07-09 12:02:00,78.1,71.4,-100.00,SE,145,2.0,9.0,80,0.00,,,0.03,meteohub,2013-07-09 16:02:00,
2013-07-09 12:07:00,78.1,71.1,-100.00,SSE,167,3.0,9.0,79,0.00,,,0.03,meteohub,2013-07-09 16:07:00,
2013-07-09 12:12:00,78.1,71.8,-100.00,SE,143,2.0,7.0,81,0.00,,,0.03,meteohub,2013-07-09 16:12:00,
2013-07-09 12:17:00,78.1,71.4,-100.00,SSE,148,1.0,6.0,80,0.00,,,0.03,meteohub,2013-07-09 16:17:00,
2013-07-09 12:22:00,78.4,71.4,-100.00,SSE,155,2.0,8.0,79,0.00,,,0.03,meteohub,2013-07-09 16:22:00,
2013-07-09 12:27:00,78.4,71.8,-100.00,SE,141,1.0,8.0,80,0.00,,,0.03,meteohub,2013-07-09 16:27:00,
2013-07-09 12:32:00,78.4,71.8,-100.00,ESE,108,2.0,6.0,80,0.00,,,0.03,meteohub,2013-07-09 16:32:00,
2013-07-09 12:37:00,78.4,71.8,-100.00,SSW,207,0.0,6.0,80,0.00,,,0.03,meteohub,2013-07-09 16:37:00,
2013-07-09 12:42:00,78.8,72.1,-100.00,South,178,4.0,6.0,80,0.00,,,0.03,meteohub,2013-07-09 16:42:00,
2013-07-09 12:47:00,78.8,71.8,-100.00,SSW,194,1.0,6.0,79,0.00,,,0.03,meteohub,2013-07-09 16:47:00,
2013-07-09 12:52:00,78.8,71.8,-100.00,SW,214,2.0,6.0,79,0.00,,,0.03,meteohub,2013-07-09 16:52:00,
2013-07-09 12:57:00,79.0,72.0,-100.00,SSW,198,3.0,6.0,79,0.00,,,0.03,meteohub,2013-07-09 16:57:00,
2013-07-09 13:02:00,79.0,72.0,-100.00,South,170,0.0,5.0,79,0.00,,,0.03,meteohub,2013-07-09 17:02:00,
2013-07-09 13:07:00,78.8,71.4,-100.00,SSW,204,1.0,6.0,78,0.00,,,0.03,meteohub,2013-07-09 17:07:00,
2013-07-09 13:12:00,78.6,72.0,-100.00,ESE,121,1.0,6.0,80,0.00,,,0.03,meteohub,2013-07-09 17:12:00,
2013-07-09 13:17:00,78.6,71.6,-100.00,South,191,2.0,5.0,79,0.00,,,0.03,meteohub,2013-07-09 17:17:00,
2013-07-09 13:22:00,78.3,71.6,-100.00,SSW,205,1.0,5.0,80,0.00,,,0.03,meteohub,2013-07-09 17:22:00,
2013-07-09 13:27:00,77.7,71.4,-100.00,SSE,153,1.0,5.0,81,0.00,,,0.03,meteohub,2013-07-09 17:27:00,
2013-07-09 13:32:00,77.5,71.6,-100.00,SSW,205,1.0,5.0,82,0.00,,,0.03,meteohub,2013-07-09 17:32:00,
2013-07-09 13:37:00,77.9,72.0,-100.00,SSW,208,2.0,5.0,82,0.00,,,0.03,meteohub,2013-07-09 17:37:00,
2013-07-09 13:43:00,78.4,72.1,-100.00,SSW,206,1.0,5.0,81,0.00,,,0.03,meteohub,2013-07-09 17:43:00,
2013-07-09 13:48:00,78.6,71.6,-100.00,SSE,166,2.0,5.0,79,0.00,,,0.03,meteohub,2013-07-09 17:48:00,
2013-07-09 13:53:00,78.6,71.6,-100.00,SE,131,3.0,5.0,79,0.00,,,0.03,meteohub,2013-07-09 17:53:00,
2013-07-09 13:58:00,78.4,71.8,-100.00,SSE,153,3.0,4.0,80,0.00,,,0.03,meteohub,2013-07-09 17:58:00,
2013-07-09 14:03:00,78.1,71.4,-100.00,SSW,204,1.0,4.0,80,0.00,,,0.03,meteohub,2013-07-09 18:03:00,
2013-07-09 14:08:00,78.1,71.8,-100.00,SSW,210,1.0,5.0,81,0.00,,,0.03,meteohub,2013-07-09 18:08:00,
2013-07-09 14:13:00,77.9,72.0,-100.00,SSW,209,2.0,5.0,82,0.00,,,0.03,meteohub,2013-07-09 18:13:00,
2013-07-09 14:18:00,77.7,71.4,-100.00,SW,214,1.0,4.0,81,0.00,,,0.03,meteohub,2013-07-09 18:18:00,
2013-07-09 14:23:00,77.5,71.6,-100.00,South,175,0.0,5.0,82,0.00,,,0.03,meteohub,2013-07-09 18:23:00,
2013-07-09 14:28:00,77.5,71.6,-100.00,SW,217,2.0,5.0,82,0.00,,,0.03,meteohub,2013-07-09 18:28:00,
2013-07-09 14:33:00,77.4,71.4,-100.00,SW,231,2.0,5.0,82,0.00,,,0.03,meteohub,2013-07-09 18:33:00,
2013-07-09 14:38:00,77.4,71.4,-100.00,SSW,200,2.0,5.0,82,0.00,,,0.03,meteohub,2013-07-09 18:38:00,
2013-07-09 14:43:00,77.4,71.8,-100.00,SSW,205,1.0,4.0,83,0.00,,,0.03,meteohub,2013-07-09 18:43:00,
2013-07-09 14:48:00,77.7,71.8,-100.00,South,172,1.0,4.0,82,0.00,,,0.03,meteohub,2013-07-09 18:48:00,
2013-07-09 14:53:00,77.9,71.6,-100.00,SSE,148,1.0,4.0,81,0.00,,,0.03,meteohub,2013-07-09 18:53:00,
2013-07-09 14:58:00,78.1,71.8,-100.00,SSE,162,1.0,4.0,81,0.00,,,0.03,meteohub,2013-07-09 18:58:00,
2013-07-09 15:03:00,78.4,72.5,-100.00,SE,142,3.0,4.0,82,0.00,,,0.03,meteohub,2013-07-09 19:03:00,
2013-07-09 15:08:00,78.3,71.6,-100.00,SW,217,3.0,3.0,80,0.00,,,0.03,meteohub,2013-07-09 19:08:00,
2013-07-09 15:13:00,78.1,71.8,-100.00,SSW,213,1.0,4.0,81,0.00,,,0.03,meteohub,2013-07-09 19:13:00,
2013-07-09 15:18:00,77.9,72.3,-100.00,South,169,0.0,7.0,83,0.00,,,0.03,meteohub,2013-07-09 19:18:00,
2013-07-09 15:23:00,78.3,72.7,-100.00,SW,222,4.0,7.0,83,0.00,,,0.03,meteohub,2013-07-09 19:23:00,
2013-07-09 15:28:00,79.0,73.0,-100.00,SE,146,3.0,7.0,82,0.00,,,0.03,meteohub,2013-07-09 19:28:00,
2013-07-09 15:33:00,79.7,72.1,-100.00,SSE,148,0.0,5.0,78,0.00,,,0.03,meteohub,2013-07-09 19:33:00,
2013-07-09 15:38:00,79.7,72.7,-100.00,SSE,154,2.0,5.0,79,0.00,,,0.03,meteohub,2013-07-09 19:38:00,
2013-07-09 15:43:00,79.3,72.3,-100.00,SW,218,1.0,4.0,79,0.00,,,0.03,meteohub,2013-07-09 19:43:00,
2013-07-09 15:48:00,79.3,72.3,-100.00,SW,221,0.0,4.0,79,0.00,,,0.03,meteohub,2013-07-09 19:48:00,
2013-07-09 15:53:00,79.5,72.9,-100.00,SSW,205,2.0,4.0,80,0.00,,,0.03,meteohub,2013-07-09 19:53:00,
2013-07-09 15:58:00,80.2,72.3,-100.00,SSW,207,2.0,5.0,77,0.00,,,0.03,meteohub,2013-07-09 19:58:00,
2013-07-09 16:03:00,80.4,72.5,-100.00,SSE,152,0.0,6.0,77,0.00,,,0.03,meteohub,2013-07-09 20:03:00,
2013-07-09 16:08:00,80.6,72.3,-100.00,SE,136,2.0,6.0,76,0.00,,,0.03,meteohub,2013-07-09 20:08:00,
2013-07-09 16:13:00,80.6,73.9,-100.00,SSE,160,3.0,6.0,80,0.00,,,0.03,meteohub,2013-07-09 20:13:00,
2013-07-09 16:18:00,80.4,72.1,-100.00,SSW,193,2.0,5.0,76,0.00,,,0.03,meteohub,2013-07-09 20:18:00,
2013-07-09 16:23:00,80.4,72.9,-100.00,SSE,158,0.0,5.0,78,0.00,,,0.03,meteohub,2013-07-09 20:23:00,
2013-07-09 16:28:00,80.4,71.8,-100.00,SSE,168,1.0,5.0,75,0.00,,,0.03,meteohub,2013-07-09 20:28:00,
2013-07-09 16:33:00,80.4,72.1,-100.00,SW,217,0.0,4.0,76,0.00,,,0.03,meteohub,2013-07-09 20:33:00,
2013-07-09 16:39:00,80.8,72.9,-100.00,SSE,168,0.0,4.0,77,0.00,,,0.03,meteohub,2013-07-09 20:39:00,
2013-07-09 16:44:00,81.1,72.9,-100.00,SSW,203,0.0,4.0,76,0.00,,,0.03,meteohub,2013-07-09 20:44:00,
2013-07-09 16:49:00,81.0,72.3,-100.00,SE,139,1.0,4.0,75,0.00,,,0.03,meteohub,2013-07-09 20:49:00,
2013-07-09 16:54:00,80.8,72.5,-100.00,SSE,147,3.0,4.0,76,0.00,,,0.03,meteohub,2013-07-09 20:54:00,
2013-07-09 16:59:00,80.8,72.9,-100.00,SE,136,1.0,4.0,77,0.00,,,0.03,meteohub,2013-07-09 20:59:00,
2013-07-09 17:04:00,80.4,72.5,-100.00,East,79,2.0,4.0,77,0.00,,,0.03,meteohub,2013-07-09 21:04:00,
2013-07-09 17:09:00,80.1,72.5,-100.00,ESE,121,0.0,4.0,78,0.00,,,0.03,meteohub,2013-07-09 21:09:00,
2013-07-09 17:14:00,80.2,72.7,-100.00,SSE,148,0.0,4.0,78,0.00,,,0.03,meteohub,2013-07-09 21:14:00,
2013-07-09 17:19:00,80.2,72.7,-100.00,SSE,152,2.0,4.0,78,0.00,,,0.03,meteohub,2013-07-09 21:19:00,
2013-07-09 17:24:00,80.6,73.4,-100.00,WSW,240,2.0,3.0,79,0.00,,,0.03,meteohub,2013-07-09 21:24:00,
2013-07-09 17:29:00,81.7,73.4,-100.00,SW,214,0.0,4.0,76,0.00,,,0.03,meteohub,2013-07-09 21:29:00,
2013-07-09 17:34:00,82.8,73.9,-100.00,ESE,123,2.0,4.0,75,0.00,,,0.03,meteohub,2013-07-09 21:34:00,
2013-07-09 17:39:00,82.2,73.0,-100.00,SSE,157,2.0,5.0,74,0.00,,,0.03,meteohub,2013-07-09 21:39:00,
2013-07-09 17:44:00,82.8,73.9,-100.00,ESE,107,1.0,6.0,75,0.00,,,0.03,meteohub,2013-07-09 21:44:00,
2013-07-09 17:49:00,82.2,73.0,-100.00,South,170,0.0,6.0,74,0.00,,,0.03,meteohub,2013-07-09 21:49:00,
2013-07-09 17:54:00,82.0,72.9,-100.00,South,171,0.0,4.0,74,0.00,,,0.03,meteohub,2013-07-09 21:54:00,
2013-07-09 17:59:00,82.0,73.4,-100.00,SW,220,0.0,3.0,75,0.00,,,0.03,meteohub,2013-07-09 21:59:00,
2013-07-09 18:04:00,81.9,73.2,-100.00,SW,236,1.0,2.0,75,0.00,,,0.03,meteohub,2013-07-09 22:04:00,
2013-07-09 18:09:00,81.5,73.2,-100.00,WSW,240,0.0,1.0,76,0.00,,,0.03,meteohub,2013-07-09 22:09:00,
2013-07-09 18:14:00,81.5,72.9,-100.00,West,264,0.0,2.0,75,0.00,,,0.03,meteohub,2013-07-09 22:14:00,
2013-07-09 18:19:00,81.3,73.4,-100.00,NW,315,0.0,4.0,77,0.00,,,0.03,meteohub,2013-07-09 22:19:00,
2013-07-09 18:24:00,80.2,72.7,-100.00,NNE,30,1.0,4.0,78,0.00,,,0.03,meteohub,2013-07-09 22:24:00,
2013-07-09 18:29:00,79.3,72.7,-100.00,WNW,296,2.0,4.0,80,0.00,,,0.03,meteohub,2013-07-09 22:29:00,
2013-07-09 18:34:00,79.0,72.7,-100.00,ENE,77,0.0,4.0,81,0.00,,,0.03,meteohub,2013-07-09 22:34:00,
2013-07-09 18:39:00,79.2,73.2,-100.00,NE,47,1.0,4.0,82,0.00,,,0.03,meteohub,2013-07-09 22:39:00,
2013-07-09 18:44:00,79.3,73.0,-100.00,NE,40,1.0,4.0,81,0.00,,,0.03,meteohub,2013-07-09 22:44:00,
2013-07-09 18:49:00,79.3,73.0,-100.00,NNE,15,0.0,4.0,81,0.00,,,0.03,meteohub,2013-07-09 22:49:00,
2013-07-09 18:54:00,79.3,73.0,-100.00,North,5,0.0,3.0,81,0.00,,,0.03,meteohub,2013-07-09 22:54:00,
2013-07-09 18:59:00,79.9,73.6,-100.00,North,5,0.0,2.0,81,0.00,,,0.03,meteohub,2013-07-09 22:59:00,
2013-07-09 19:04:00,80.1,73.4,-100.00,ENE,63,0.0,2.0,80,0.00,,,0.03,meteohub,2013-07-09 23:04:00,
2013-07-09 19:09:00,80.2,73.9,-100.00,ENE,64,0.0,1.0,81,0.00,,,0.03,meteohub,2013-07-09 23:09:00,
2013-07-09 19:14:00,81.0,74.1,-100.00,ENE,64,0.0,1.0,80,0.00,,,0.03,meteohub,2013-07-09 23:14:00,
2013-07-09 19:20:00,81.3,73.4,-100.00,West,262,0.0,2.0,77,0.00,,,0.03,meteohub,2013-07-09 23:20:00,
2013-07-09 19:24:00,81.0,73.0,-100.00,West,271,1.0,3.0,77,0.00,,,0.03,meteohub,2013-07-09 23:24:00,
2013-07-09 19:29:00,80.8,73.2,-100.00,West,271,0.0,3.0,78,0.00,,,0.03,meteohub,2013-07-09 23:29:00,
2013-07-09 19:34:00,81.0,74.1,-100.00,West,270,0.0,3.0,80,0.00,,,0.03,meteohub,2013-07-09 23:34:00,
2013-07-09 19:39:00,80.8,73.6,-100.00,West,272,1.0,1.0,79,0.00,,,0.03,meteohub,2013-07-09 23:39:00,
2013-07-09 19:45:00,80.1,72.5,-100.00,SSW,212,0.0,2.0,78,0.00,,,0.03,meteohub,2013-07-09 23:45:00,
2013-07-09 19:50:00,79.9,72.3,-100.00,SW,219,1.0,4.0,78,0.00,,,0.03,meteohub,2013-07-09 23:50:00,
2013-07-09 19:55:00,79.3,72.3,-100.00,SW,214,0.0,4.0,79,0.00,,,0.03,meteohub,2013-07-09 23:55:00,
2013-07-09 20:00:00,79.0,72.3,-100.00,WSW,242,1.0,4.0,80,0.00,,,0.03,meteohub,2013-07-10 00:00:00,
2013-07-09 20:05:00,78.6,72.0,-100.00,South,186,1.0,3.0,80,0.00,,,0.03,meteohub,2013-07-10 00:05:00,
2013-07-09 20:10:00,78.6,72.3,-100.00,SSW,200,1.0,3.0,81,0.00,,,0.03,meteohub,2013-07-10 00:10:00,
2013-07-09 20:15:00,78.4,72.1,-100.00,SSE,167,1.0,4.0,81,0.00,,,0.03,meteohub,2013-07-10 00:15:00,
2013-07-09 20:20:00,78.4,72.5,-100.00,SW,217,0.0,4.0,82,0.00,,,0.03,meteohub,2013-07-10 00:20:00,
2013-07-09 20:25:00,78.3,72.3,-100.00,SSW,200,1.0,4.0,82,0.00,,,0.03,meteohub,2013-07-10 00:25:00,
2013-07-09 20:30:00,78.1,72.1,-100.00,SW,227,0.0,3.0,82,0.00,,,0.03,meteohub,2013-07-10 00:30:00,
2013-07-09 20:35:00,77.7,72.1,-100.00,SW,216,1.0,3.0,83,0.00,,,0.03,meteohub,2013-07-10 00:35:00,
2013-07-09 20:40:00,77.5,72.0,-100.00,South,188,1.0,3.0,83,0.00,,,0.03,meteohub,2013-07-10 00:40:00,
2013-07-09 20:45:00,77.4,71.8,-100.00,SSW,202,1.0,4.0,83,0.00,,,0.03,meteohub,2013-07-10 00:45:00,
2013-07-09 20:50:00,77.0,71.8,-100.00,South,183,0.0,4.0,84,0.00,,,0.03,meteohub,2013-07-10 00:50:00,
2013-07-09 20:55:00,76.6,71.8,-100.00,South,191,0.0,4.0,85,0.00,,,0.03,meteohub,2013-07-10 00:55:00,
2013-07-09 21:00:00,76.3,71.4,-100.00,SE,145,1.0,4.0,85,0.00,,,0.03,meteohub,2013-07-10 01:00:00,
2013-07-09 21:05:00,75.9,71.4,-100.00,SSW,197,0.0,4.0,86,0.00,,,0.03,meteohub,2013-07-10 01:05:00,
2013-07-09 21:10:00,75.7,71.2,-100.00,SSW,194,0.0,3.0,86,0.00,,,0.03,meteohub,2013-07-10 01:10:00,
2013-07-09 21:15:00,75.4,71.2,-100.00,South,191,0.0,1.0,87,0.00,,,0.03,meteohub,2013-07-10 01:15:00,
2013-07-09 21:20:00,74.8,71.1,-100.00,SSW,200,0.0,1.0,88,0.00,,,0.03,meteohub,2013-07-10 01:20:00,
2013-07-09 21:25:00,74.7,70.9,-100.00,SSW,207,0.0,1.0,88,0.00,,,0.03,meteohub,2013-07-10 01:25:00,
2013-07-09 21:30:00,74.3,70.9,-100.00,SSE,151,0.0,1.0,89,0.00,,,0.03,meteohub,2013-07-10 01:30:00,
2013-07-09 21:35:00,73.9,70.5,-100.00,SSE,152,0.0,1.0,89,0.00,,,0.03,meteohub,2013-07-10 01:35:00,
2013-07-09 21:40:00,73.8,70.7,-100.00,SSW,205,0.0,1.0,90,0.00,,,0.03,meteohub,2013-07-10 01:40:00,
2013-07-09 21:45:00,73.6,70.7,-100.00,SE,137,0.0,1.0,91,0.00,,,0.03,meteohub,2013-07-10 01:45:00,
2013-07-09 21:50:00,73.4,70.5,-100.00,SSE,167,0.0,1.0,91,0.00,,,0.03,meteohub,2013-07-10 01:50:00,
2013-07-09 21:55:00,73.0,70.3,-100.00,SSE,166,0.0,1.0,91,0.00,,,0.03,meteohub,2013-07-10 01:55:00,
2013-07-09 22:00:00,73.0,70.5,-100.00,SE,124,0.0,1.0,92,0.00,,,0.03,meteohub,2013-07-10 02:00:00,
2013-07-09 22:05:00,72.9,70.3,-100.00,SSE,155,0.0,1.0,92,0.00,,,0.03,meteohub,2013-07-10 02:05:00,
2013-07-09 22:10:00,72.9,70.3,-100.00,SSE,165,0.0,2.0,92,0.00,,,0.03,meteohub,2013-07-10 02:10:00,
2013-07-09 22:15:00,72.7,70.5,-100.00,SSW,196,0.0,2.0,93,0.00,,,0.03,meteohub,2013-07-10 02:15:00,
2013-07-09 22:21:00,72.7,70.5,-100.00,SE,144,1.0,1.0,93,0.00,,,0.03,meteohub,2013-07-10 02:21:00,
2013-07-09 22:26:00,72.7,70.5,-100.00,SSW,201,0.0,1.0,93,0.00,,,0.03,meteohub,2013-07-10 02:26:00,
2013-07-09 22:31:00,72.5,70.3,-100.00,SW,214,2.0,2.0,93,0.00,,,0.03,meteohub,2013-07-10 02:31:00,
2013-07-09 22:36:00,72.7,70.9,-100.00,SSE,165,2.0,2.0,94,0.00,,,0.03,meteohub,2013-07-10 02:36:00,
2013-07-09 22:41:00,72.7,70.5,-100.00,SSE,157,1.0,5.0,93,0.00,,,0.03,meteohub,2013-07-10 02:41:00,
2013-07-09 22:46:00,72.7,70.5,-100.00,SSW,204,1.0,5.0,93,0.00,,,0.03,meteohub,2013-07-10 02:46:00,
2013-07-09 22:51:00,72.7,70.5,-100.00,SSW,213,1.0,5.0,93,0.00,,,0.03,meteohub,2013-07-10 02:51:00,
2013-07-09 22:56:00,72.7,70.5,-100.00,South,169,0.0,3.0,93,0.00,,,0.03,meteohub,2013-07-10 02:56:00,
2013-07-09 23:01:00,72.5,70.7,-100.00,SSW,210,0.0,3.0,94,0.00,,,0.03,meteohub,2013-07-10 03:01:00,
2013-07-09 23:06:00,72.3,70.5,-100.00,SE,136,0.0,2.0,94,0.00,,,0.03,meteohub,2013-07-10 03:06:00,
2013-07-09 23:11:00,72.3,70.5,-100.00,SW,221,0.0,2.0,94,0.00,,,0.03,meteohub,2013-07-10 03:11:00,
2013-07-09 23:16:00,72.1,70.3,-100.00,SSE,154,0.0,2.0,94,0.00,,,0.03,meteohub,2013-07-10 03:16:00,
2013-07-09 23:21:00,72.1,70.3,-100.00,SSE,167,0.0,2.0,94,0.00,,,0.03,meteohub,2013-07-10 03:21:00,
2013-07-09 23:26:00,72.0,70.2,-100.00,SSE,148,0.0,2.0,94,0.00,,,0.03,meteohub,2013-07-10 03:26:00,
2013-07-09 23:31:00,72.0,70.5,-100.00,SE,139,0.0,2.0,95,0.00,,,0.03,meteohub,2013-07-10 03:31:00,
2013-07-09 23:36:00,72.0,70.5,-100.00,SW,215,1.0,2.0,95,0.00,,,0.03,meteohub,2013-07-10 03:36:00,
2013-07-09 23:41:00,72.0,70.5,-100.00,SSW,207,0.0,2.0,95,0.00,,,0.03,meteohub,2013-07-10 03:41:00,
2013-07-09 23:46:00,71.8,70.3,-100.00,SSW,204,0.0,2.0,95,0.00,,,0.03,meteohub,2013-07-10 03:46:00,
2013-07-09 23:51:00,71.8,70.3,-100.00,SSW,195,0.0,2.0,95,0.00,,,0.03,meteohub,2013-07-10 03:51:00,
2013-07-09 23:56:00,71.6,70.2,-100.00,SSW,195,0.0,2.0,95,0.00,,,0.03,meteohub,2013-07-10 03:56:00,